createdAt,value
2023-03-17T00:01:09.713Z,67.70
2023-03-17T00:04:12.701Z,67.61
2023-03-17T00:07:17.014Z,67.82
2023-03-17T00:10:25.106Z,67.76
2023-03-17T00:13:28.466Z,67.62
2023-03-17T00:16:34.920Z,67.62
2023-03-17T00:19:37.759Z,67.84
2023-03-17T00:22:40.950Z,68.01
2023-03-17T00:25:45.406Z,68.17
2023-03-17T00:28:48.503Z,68.34
2023-03-17T00:31:51.490Z,68.45
2023-03-17T00:34:58.789Z,68.40
2023-03-17T00:38:01.588Z,67.97
2023-03-17T00:41:06.137Z,68.19
2023-03-17T00:44:09.774Z,68.13
2023-03-17T00:47:13.588Z,68.04
2023-03-17T00:50:18.111Z,68.16
2023-03-17T00:53:23.975Z,68.53
2023-03-17T00:56:26.987Z,68.62
2023-03-17T00:59:33.354Z,68.64
2023-03-17T01:02:36.191Z,68.81
2023-03-17T01:05:39.533Z,68.88
2023-03-17T01:08:44.828Z,68.97
2023-03-17T01:11:48.715Z,68.96
2023-03-17T01:14:52.761Z,68.93
2023-03-17T01:17:55.867Z,69.17
2023-03-17T01:20:58.586Z,69.31
2023-03-17T01:24:01.712Z,69.42
2023-03-17T01:27:04.988Z,69.27
2023-03-17T01:30:13.186Z,69.34
2023-03-17T01:33:16.109Z,68.93
2023-03-17T01:36:18.887Z,69.17
2023-03-17T01:39:21.881Z,69.39
2023-03-17T01:42:25.466Z,69.40
2023-03-17T01:45:47.117Z,69.53
2023-03-17T01:48:53.032Z,69.72
2023-03-17T01:52:07.588Z,69.81
2023-03-17T01:55:12.415Z,69.78
2023-03-17T01:58:16.244Z,69.71
2023-03-17T02:01:52.708Z,69.76
2023-03-17T02:05:49.600Z,69.85
2023-03-17T02:09:53.192Z,70.14
2023-03-17T02:13:53.934Z,70.03
2023-03-17T02:17:57.543Z,70.13
2023-03-17T02:22:06.895Z,70.21
2023-03-17T02:26:10.399Z,70.17
2023-03-17T02:30:14.077Z,70.35
2023-03-17T02:34:17.687Z,70.37
2023-03-17T02:38:21.234Z,70.30
2023-03-17T02:42:24.898Z,70.40
2023-03-17T02:46:28.125Z,70.32
2023-03-17T02:50:31.688Z,70.11
2023-03-17T02:54:35.440Z,70.25
2023-03-17T02:58:38.888Z,70.22
2023-03-17T03:02:42.580Z,70.35
2023-03-17T03:06:45.059Z,70.34
2023-03-17T03:10:48.790Z,70.55
2023-03-17T03:14:45.015Z,70.54
2023-03-17T03:18:48.691Z,70.64
2023-03-17T03:22:52.208Z,70.64
2023-03-17T03:26:55.445Z,70.46
2023-03-17T03:30:59.136Z,70.40
2023-03-17T03:35:02.952Z,70.45
2023-03-17T03:39:06.589Z,70.54
2023-03-17T03:43:21.962Z,70.46
2023-03-17T03:47:26.444Z,70.49
2023-03-17T03:51:30.098Z,70.89
2023-03-17T03:55:33.592Z,70.79
2023-03-17T03:59:35.688Z,70.98
2023-03-17T04:03:38.011Z,70.87
2023-03-17T04:07:41.683Z,70.81
2023-03-17T04:11:37.678Z,70.81
2023-03-17T04:15:36.282Z,70.53
2023-03-17T04:19:40.014Z,70.71
2023-03-17T04:23:36.187Z,70.70
2023-03-17T04:27:39.834Z,70.99
2023-03-17T04:31:40.756Z,71.12
2023-03-17T04:35:37.367Z,71.20
2023-03-17T04:39:39.475Z,70.99
2023-03-17T04:43:37.189Z,71.08
2023-03-17T04:47:40.890Z,71.03
2023-03-17T04:51:42.959Z,72.09
2023-03-17T04:55:46.570Z,71.35
2023-03-17T04:59:50.287Z,71.26
2023-03-17T05:03:53.836Z,71.24
2023-03-17T05:07:50.280Z,71.35
2023-03-17T05:11:46.925Z,71.88
2023-03-17T05:15:50.569Z,72.00
2023-03-17T05:19:54.171Z,72.09
2023-03-17T05:23:57.940Z,72.18
2023-03-17T05:28:01.527Z,72.54
2023-03-17T05:32:04.965Z,72.53
2023-03-17T05:36:08.708Z,72.59
2023-03-17T05:40:12.396Z,71.76
2023-03-17T05:44:16.006Z,71.60
2023-03-17T05:48:19.537Z,71.60
2023-03-17T05:52:23.095Z,71.26
2023-03-17T05:56:26.748Z,70.50
2023-03-17T06:00:30.620Z,69.96
2023-03-17T06:04:33.100Z,69.51
2023-03-17T06:08:36.793Z,69.54
2023-03-17T06:12:40.373Z,68.85
2023-03-17T06:16:44.061Z,68.41
2023-03-17T06:20:47.854Z,68.15
2023-03-17T06:24:50.359Z,67.91
2023-03-17T06:28:52.838Z,66.96
2023-03-17T06:32:56.827Z,66.37
2023-03-17T06:36:56.978Z,65.36
2023-03-17T06:40:53.497Z,64.84
2023-03-17T06:44:57.138Z,64.09
2023-03-17T06:49:00.846Z,63.68
2023-03-17T06:53:04.423Z,63.03
2023-03-17T06:57:08.053Z,62.43
2023-03-17T07:01:11.695Z,61.61
2023-03-17T07:05:15.318Z,61.18
2023-03-17T07:09:17.799Z,60.79
2023-03-17T07:13:20.455Z,60.68
2023-03-17T07:17:21.760Z,59.92
2023-03-17T07:21:25.401Z,58.89
2023-03-17T07:25:29.210Z,58.66
2023-03-17T07:29:33.076Z,58.25
2023-03-17T07:33:36.608Z,57.69
2023-03-17T07:37:40.491Z,57.64
2023-03-17T07:41:26.808Z,57.05
2023-03-17T07:45:30.861Z,56.77
2023-03-17T07:49:41.598Z,56.74
2023-03-17T07:53:47.246Z,55.96
2023-03-17T07:57:49.594Z,55.25
2023-03-17T08:01:53.123Z,54.37
2023-03-17T08:05:56.877Z,53.70
2023-03-17T08:10:00.507Z,53.56
2023-03-17T08:14:04.207Z,53.18
2023-03-17T08:18:00.379Z,52.98
2023-03-17T08:22:04.131Z,52.58
2023-03-17T08:26:06.321Z,52.53
2023-03-17T08:30:09.919Z,51.80
2023-03-17T08:34:13.442Z,51.25
2023-03-17T08:38:16.929Z,50.31
2023-03-17T08:42:20.633Z,50.19
2023-03-17T08:46:24.412Z,48.93
2023-03-17T08:50:28.120Z,48.55
2023-03-17T08:54:31.653Z,48.27
2023-03-17T08:58:30.119Z,47.80
2023-03-17T09:02:26.282Z,47.48
2023-03-17T09:06:15.205Z,47.23
2023-03-17T09:10:18.651Z,47.08
2023-03-17T09:14:22.369Z,46.47
2023-03-17T09:18:25.958Z,46.39
2023-03-17T09:22:29.577Z,46.09
2023-03-17T09:26:33.195Z,45.97
2023-03-17T09:30:39.277Z,46.00
2023-03-17T09:34:42.876Z,45.89
2023-03-17T09:38:46.270Z,45.02
2023-03-17T09:42:43.461Z,44.60
2023-03-17T09:46:59.120Z,45.11
2023-03-17T09:50:52.778Z,45.00
2023-03-17T09:54:59.415Z,44.99
2023-03-17T09:59:03.156Z,43.52
2023-03-17T10:03:09.904Z,44.08
2023-03-17T10:07:12.952Z,43.81
2023-03-17T10:11:09.460Z,43.15
2023-03-17T10:15:21.822Z,41.18
2023-03-17T10:19:25.973Z,42.44
2023-03-17T10:23:32.368Z,43.45
2023-03-17T10:27:36.021Z,41.89
2023-03-17T10:31:37.590Z,42.75
2023-03-17T10:35:41.207Z,42.49
2023-03-17T10:39:44.696Z,43.13
2023-03-17T10:43:48.229Z,42.50
2023-03-17T10:48:00.896Z,42.42
2023-03-17T10:52:10.439Z,42.02
2023-03-17T10:56:13.978Z,41.83
2023-03-17T11:00:04.561Z,40.98
2023-03-17T11:04:07.101Z,40.75
2023-03-17T11:08:16.772Z,41.40
2023-03-17T11:12:23.237Z,41.59
2023-03-17T11:16:29.222Z,41.51
2023-03-17T11:20:25.418Z,40.41
2023-03-17T11:24:30.421Z,38.47
2023-03-17T11:28:36.603Z,40.56
2023-03-17T11:32:38.448Z,40.30
2023-03-17T11:36:37.256Z,40.27
2023-03-17T11:40:39.766Z,39.88
2023-03-17T11:44:43.268Z,38.90
2023-03-17T11:48:55.844Z,39.82
2023-03-17T11:53:14.681Z,39.29
2023-03-17T11:57:27.009Z,39.10
2023-03-17T12:01:30.490Z,38.99
2023-03-17T12:05:42.834Z,39.01
2023-03-17T12:09:44.783Z,39.44
2023-03-17T12:13:57.431Z,39.59
2023-03-17T12:18:00.965Z,38.90
2023-03-17T12:22:04.363Z,39.52
2023-03-17T12:26:10.881Z,39.46
2023-03-17T12:30:32.768Z,40.04
2023-03-17T12:34:32.188Z,39.42
2023-03-17T12:38:35.802Z,38.77
2023-03-17T12:42:45.162Z,39.06
2023-03-17T12:46:51.822Z,38.93
2023-03-17T12:50:52.659Z,38.63
2023-03-17T12:54:59.391Z,37.38
2023-03-17T12:59:18.450Z,37.43
2023-03-17T13:03:22.097Z,36.94
2023-03-17T13:07:24.092Z,38.04
2023-03-17T13:11:27.620Z,38.34
2023-03-17T13:15:31.224Z,37.88
2023-03-17T13:19:33.902Z,37.63
2023-03-17T13:23:50.941Z,37.66
2023-03-17T13:27:54.508Z,39.48
2023-03-17T13:32:07.027Z,38.29
2023-03-17T13:36:13.804Z,37.75
2023-03-17T13:40:10.933Z,37.31
2023-03-17T13:44:29.942Z,37.64
2023-03-17T13:48:33.624Z,37.44
2023-03-17T13:52:55.460Z,37.12
2023-03-17T13:56:59.043Z,37.20
2023-03-17T14:01:02.785Z,36.94
2023-03-17T14:05:06.389Z,37.33
2023-03-17T14:09:12.451Z,37.31
2023-03-17T14:13:16.044Z,37.54
2023-03-17T14:17:22.653Z,37.34
2023-03-17T14:21:32.429Z,37.64
2023-03-17T14:25:35.980Z,37.50
2023-03-17T14:29:39.548Z,37.10
2023-03-17T14:33:52.200Z,37.25
2023-03-17T14:37:55.841Z,37.17
2023-03-17T14:41:58.352Z,36.90
2023-03-17T14:45:52.984Z,36.85
2023-03-17T14:49:56.559Z,37.29
2023-03-17T14:54:00.279Z,37.47
2023-03-17T14:58:03.619Z,37.67
2023-03-17T15:02:13.036Z,37.72
2023-03-17T15:06:18.144Z,38.10
2023-03-17T15:10:21.639Z,38.12
2023-03-17T15:14:23.786Z,38.20
2023-03-17T15:18:27.592Z,38.37
2023-03-17T15:22:23.678Z,38.69
2023-03-17T15:26:29.704Z,39.07
2023-03-17T15:30:46.267Z,39.21
2023-03-17T15:34:50.974Z,39.46
2023-03-17T15:38:54.761Z,38.97
2023-03-17T15:42:57.207Z,38.92
2023-03-17T15:46:58.066Z,38.91
2023-03-17T15:51:04.711Z,38.89
2023-03-17T15:55:08.126Z,39.70
2023-03-17T15:59:11.867Z,39.21
2023-03-17T16:03:15.263Z,39.51
2023-03-17T16:07:21.986Z,39.82
2023-03-17T16:11:25.479Z,39.90
2023-03-17T16:15:29.115Z,40.01
2023-03-17T16:19:32.341Z,40.28
2023-03-17T16:23:29.550Z,40.30
2023-03-17T16:27:32.809Z,40.56
2023-03-17T16:31:35.176Z,40.85
2023-03-17T16:35:38.937Z,40.91
2023-03-17T16:39:33.501Z,41.06
2023-03-17T16:43:29.092Z,42.36
2023-03-17T16:47:32.695Z,41.90
2023-03-17T16:51:36.258Z,41.77
2023-03-17T16:55:39.891Z,41.80
2023-03-17T16:59:43.641Z,42.03
2023-03-17T17:03:41.149Z,42.16
2023-03-17T17:07:27.327Z,42.15
2023-03-17T17:11:30.824Z,42.10
2023-03-17T17:15:34.402Z,42.19
2023-03-17T17:19:37.992Z,42.17
2023-03-17T17:23:42.320Z,42.36
2023-03-17T17:27:45.910Z,42.77
2023-03-17T17:31:49.720Z,42.71
2023-03-17T17:35:53.376Z,42.73
2023-03-17T17:39:57.032Z,42.92
2023-03-17T17:44:00.600Z,43.01
2023-03-17T17:48:04.346Z,43.43
2023-03-17T17:52:06.788Z,43.40
2023-03-17T17:56:03.348Z,43.22
2023-03-17T18:00:00.699Z,43.42
2023-03-17T18:03:58.225Z,43.58
2023-03-17T18:08:01.791Z,43.68
2023-03-17T18:12:05.117Z,43.73
2023-03-17T18:16:08.819Z,43.67
2023-03-17T18:20:12.395Z,43.90
2023-03-17T18:24:09.580Z,43.68
2023-03-17T18:28:05.618Z,43.89
2023-03-17T18:32:09.349Z,43.93
2023-03-17T18:36:05.955Z,43.93
2023-03-17T18:40:15.067Z,43.84
2023-03-17T18:44:18.589Z,44.06
2023-03-17T18:48:22.233Z,43.97
2023-03-17T18:52:25.835Z,44.31
2023-03-17T18:56:29.485Z,44.84
2023-03-17T19:00:32.956Z,45.37
2023-03-17T19:04:37.169Z,45.60
2023-03-17T19:08:33.414Z,45.86
2023-03-17T19:12:37.154Z,46.08
2023-03-17T19:16:40.659Z,46.22
2023-03-17T19:20:36.654Z,46.46
2023-03-17T19:24:40.393Z,46.72
2023-03-17T19:28:42.539Z,47.23
2023-03-17T19:32:46.214Z,47.35
2023-03-17T19:36:50.020Z,47.36
2023-03-17T19:40:50.603Z,47.91
2023-03-17T19:44:48.114Z,48.16
2023-03-17T19:48:52.417Z,48.00
2023-03-17T19:52:56.183Z,48.15
2023-03-17T19:56:59.551Z,48.49
2023-03-17T20:01:03.509Z,48.57
2023-03-17T20:05:07.362Z,48.51
2023-03-17T20:09:03.724Z,48.60
2023-03-17T20:13:07.416Z,48.91
2023-03-17T20:16:55.266Z,48.93
2023-03-17T20:20:57.500Z,48.98
2023-03-17T20:25:01.243Z,49.08
2023-03-17T20:29:04.857Z,49.11
2023-03-17T20:33:08.454Z,49.18
2023-03-17T20:37:12.056Z,49.34
2023-03-17T20:41:15.568Z,49.55
2023-03-17T20:45:19.315Z,49.58
2023-03-17T20:49:22.978Z,49.66
2023-03-17T20:53:27.291Z,49.65
2023-03-17T20:57:30.984Z,49.76
2023-03-17T21:01:25.880Z,50.04
2023-03-17T21:05:29.423Z,49.81
2023-03-17T21:09:25.573Z,49.88
2023-03-17T21:13:23.001Z,50.04
2023-03-17T21:17:26.695Z,50.24
2023-03-17T21:21:30.413Z,50.19
2023-03-17T21:25:34.118Z,50.34
2023-03-17T21:29:37.951Z,50.52
2023-03-17T21:33:41.434Z,50.67
2023-03-17T21:37:44.883Z,50.45
2023-03-17T21:42:03.690Z,50.56
2023-03-17T21:46:07.429Z,50.82
2023-03-17T21:50:11.040Z,50.95
2023-03-17T21:54:14.698Z,51.12
2023-03-17T21:58:18.300Z,50.90
2023-03-17T22:02:22.249Z,50.98
2023-03-17T22:06:25.896Z,51.13
2023-03-17T22:10:22.356Z,51.43
2023-03-17T22:14:25.968Z,51.60
2023-03-17T22:18:29.568Z,51.70
2023-03-17T22:22:24.779Z,51.91
2023-03-17T22:26:28.429Z,52.06
2023-03-17T22:30:24.696Z,52.12
2023-03-17T22:34:28.381Z,52.12
2023-03-17T22:38:25.808Z,52.15
2023-03-17T22:42:29.438Z,52.02
2023-03-17T22:46:33.114Z,52.47
2023-03-17T22:50:36.831Z,52.68
2023-03-17T22:54:40.551Z,53.48
2023-03-17T22:58:44.564Z,53.57
2023-03-17T23:02:48.128Z,52.96
2023-03-17T23:06:44.163Z,53.10
2023-03-17T23:10:40.041Z,52.81
2023-03-17T23:14:43.885Z,52.88
2023-03-17T23:18:47.518Z,53.13
2023-03-17T23:22:50.784Z,52.83
2023-03-17T23:26:48.047Z,53.14
2023-03-17T23:30:51.398Z,53.39
2023-03-17T23:34:45.974Z,53.19
2023-03-17T23:38:49.708Z,53.28
2023-03-17T23:42:53.329Z,53.45
2023-03-17T23:46:57.353Z,53.46
2023-03-17T23:50:58.583Z,53.56
2023-03-17T23:55:02.138Z,53.50
2023-03-17T23:58:58.469Z,53.63
